Astorga, Brazil
Current Conditions -  °F | °C
As of 5:35 AM on Monday 22 Dec 2014 (Local Time) from SBMG Reporting Station
Thunderstorm Thunderstorm  
Wind Chill: 73°   Ceiling: 3000
Heat Index: 73°   Visibility: 2.5mi
Dew Point: 72°   Wind: 16mph
Humidity: 94%   Direction: 330°NNW
Pressure: 29.8"   Gusts: NA
Location:  23.23°S, 51.67°W
Report Text: SBMG 220735Z 33014KT 4000 RA VCTS SCT005 BKN030 FEW040CB 23/22 Q1009
Loading
Personal Weather Stations






























Interactive Weather Map New forecast layout! Learn more

10-Day Weather Forecast

Advertisements
Track Severe Weather on mobile